Time;durP1;ratioP1;P1;durP2;ratioP2;P2;SDS_P1;SDS_P2;PMS_P1;PMS_P2;Temp;Humidity;BMP_temperature;BMP_pressure;BME280_temperature;BME280_humidity;BME280_pressure;Samples;Min_cycle;Max_cycle;Signal;HPM_P1;HPM_P2
2021/05/15 00:00:41;;;;;;;13.43;10.38;;;;;;;7.19;72.03;98531.77;1649658;84;21113;-62
2021/05/15 00:03:12;;;;;;;18.82;11.35;;;;;;;7.14;72.15;98533.76;1673721;84;21520;-63
2021/05/15 00:05:44;;;;;;;13.15;10.65;;;;;;;7.07;72.23;98527.23;1684771;84;20898;-63
2021/05/15 00:08:13;;;;;;;13.60;10.23;;;;;;;6.99;72.23;98524.19;1683526;84;20992;-63
2021/05/15 00:10:43;;;;;;;14.93;10.72;;;;;;;6.88;72.21;98525.56;1686335;84;20992;-62
2021/05/15 00:13:14;;;;;;;14.30;11.10;;;;;;;6.84;72.39;98518.88;1681607;84;20998;-62
2021/05/15 00:15:48;;;;;;;14.63;10.55;;;;;;;6.79;72.42;98523.45;1683007;84;20973;-62
2021/05/15 00:18:17;;;;;;;16.82;9.68;;;;;;;6.75;72.54;98521.95;1681103;84;20981;-63
2021/05/15 00:20:47;;;;;;;14.58;9.45;;;;;;;6.74;72.72;98520.25;1684537;84;20969;-63
2021/05/15 00:23:15;;;;;;;10.98;9.75;;;;;;;6.74;72.83;98530.63;1682752;84;21487;-62
2021/05/15 00:25:46;;;;;;;16.27;10.15;;;;;;;6.72;72.83;98529.85;1664027;84;21026;-63
2021/05/15 00:28:15;;;;;;;14.10;9.83;;;;;;;6.75;72.90;98532.33;1683755;84;20966;-62
2021/05/15 00:30:44;;;;;;;11.20;9.63;;;;;;;6.79;73.02;98536.42;1683770;84;20917;-62
2021/05/15 00:33:15;;;;;;;12.35;10.13;;;;;;;6.85;73.05;98533.52;1691236;84;20909;-62
2021/05/15 00:35:47;;;;;;;11.80;9.80;;;;;;;6.84;73.04;98544.81;1683396;84;20949;-62
2021/05/15 00:38:38;;;;;;;14.35;10.58;;;;;;;6.84;73.06;98539.63;1684488;84;21585;-62
2021/05/15 00:41:10;;;;;;;14.75;10.15;;;;;;;6.86;73.11;98541.70;1680014;84;20942;-62
2021/05/15 00:43:45;;;;;;;12.40;9.25;;;;;;;6.89;73.20;98537.64;1684297;84;20966;-63
2021/05/15 00:46:07;;;;;;;12.75;8.95;;;;;;;6.90;73.19;98539.31;1692897;84;20967;-62
2021/05/15 00:48:36;;;;;;;12.82;9.18;;;;;;;6.92;73.25;98540.08;1711506;83;20969;-62
2021/05/15 00:51:14;;;;;;;12.95;9.15;;;;;;;6.93;73.29;98540.45;1706743;83;21762;-62
2021/05/15 00:53:44;;;;;;;10.35;8.73;;;;;;;6.92;73.30;98538.78;1712232;83;20909;-62
2021/05/15 00:56:16;;;;;;;11.78;8.50;;;;;;;6.90;73.27;98536.72;1709908;83;20945;-63
2021/05/15 00:58:48;;;;;;;12.60;8.45;;;;;;;6.88;73.23;98538.54;1710380;83;21020;-62
2021/05/15 01:01:20;;;;;;;10.40;9.00;;;;;;;6.86;73.36;98539.10;1682085;83;20949;-62
2021/05/15 01:03:49;;;;;;;13.55;8.13;;;;;;;6.86;73.46;98541.70;1688344;83;21164;-62
2021/05/15 01:06:18;;;;;;;13.20;8.05;;;;;;;6.87;73.52;98551.61;1670672;84;20951;-62
2021/05/15 01:08:50;;;;;;;8.95;7.78;;;;;;;6.84;73.62;98547.41;1667750;84;20956;-62
2021/05/15 01:11:21;;;;;;;13.85;7.95;;;;;;;6.83;73.66;98547.02;1683562;84;21005;-62
2021/05/15 01:14:01;;;;;;;12.25;8.23;;;;;;;6.82;73.75;98551.00;1662683;84;20937;-62
2021/05/15 01:16:32;;;;;;;10.40;8.05;;;;;;;6.81;73.79;98554.06;1667239;84;21069;-62
2021/05/15 01:19:01;;;;;;;10.32;7.67;;;;;;;6.82;73.89;98553.59;1672730;84;20981;-62
2021/05/15 01:21:31;;;;;;;11.60;8.08;;;;;;;6.81;73.92;98551.47;1689641;84;21459;-62
2021/05/15 01:24:02;;;;;;;11.57;8.70;;;;;;;6.80;74.07;98552.83;1680840;84;20970;-62
2021/05/15 01:26:32;;;;;;;12.00;8.55;;;;;;;6.80;74.06;98550.23;1685580;82;20929;-62
2021/05/15 01:29:06;;;;;;;10.28;7.83;;;;;;;6.77;73.94;98551.22;1674537;84;21038;-62
2021/05/15 01:31:40;;;;;;;12.13;8.05;;;;;;;6.78;74.15;98552.92;1663452;84;21503;-62
2021/05/15 01:34:11;;;;;;;11.68;8.13;;;;;;;6.81;74.15;98551.93;1687295;84;21479;-62
2021/05/15 01:36:42;;;;;;;9.30;8.03;;;;;;;6.80;74.07;98551.06;1682304;82;20949;-62
2021/05/15 01:39:15;;;;;;;9.93;7.65;;;;;;;6.79;74.11;98555.05;1682579;84;20921;-62
2021/05/15 01:41:46;;;;;;;11.75;7.85;;;;;;;6.78;74.22;98549.03;1687767;84;21023;-63
2021/05/15 01:44:16;;;;;;;11.12;7.90;;;;;;;6.73;74.14;98551.84;1685008;84;20965;-62
2021/05/15 01:46:48;;;;;;;9.35;8.28;;;;;;;6.67;74.04;98550.02;1681663;84;20933;-62
2021/05/15 01:49:17;;;;;;;13.90;7.95;;;;;;;6.57;74.00;98541.02;1685710;84;20957;-62
2021/05/15 01:51:48;;;;;;;10.05;8.00;;;;;;;6.56;74.21;98548.42;1663654;84;20897;-62
2021/05/15 01:54:19;;;;;;;8.70;7.70;;;;;;;6.59;74.41;98544.38;1684755;82;21028;-63
2021/05/15 01:56:47;;;;;;;16.23;8.00;;;;;;;6.65;74.60;98549.25;1687260;84;20929;-63
2021/05/15 01:59:17;;;;;;;10.50;8.13;;;;;;;6.71;74.62;98554.13;1684277;84;21577;-62
2021/05/15 02:01:47;;;;;;;11.00;8.78;;;;;;;6.76;74.63;98553.45;1684619;83;21467;-62
2021/05/15 02:04:16;;;;;;;10.95;8.23;;;;;;;6.73;74.29;98556.20;1688749;83;20968;-62
2021/05/15 02:06:46;;;;;;;10.75;8.90;;;;;;;6.62;74.26;98554.59;1686811;84;20940;-62
2021/05/15 02:09:15;;;;;;;13.75;7.87;;;;;;;6.56;74.29;98555.73;1689746;84;20992;-62
2021/05/15 02:11:43;;;;;;;12.05;8.60;;;;;;;6.54;74.39;98555.44;1686535;84;21368;-62
2021/05/15 02:14:15;;;;;;;11.08;7.45;;;;;;;6.54;74.56;98557.56;1660295;84;21728;-62
2021/05/15 02:16:44;;;;;;;12.50;7.85;;;;;;;6.61;74.69;98554.20;1689234;84;20980;-62
2021/05/15 02:19:15;;;;;;;10.35;7.45;;;;;;;6.68;74.71;98562.06;1690599;84;21066;-63
2021/05/15 02:21:44;;;;;;;9.83;8.15;;;;;;;6.68;74.66;98557.71;1691525;84;20952;-62
2021/05/15 02:24:20;;;;;;;8.13;7.30;;;;;;;6.70;74.64;98560.24;1719607;82;20944;-62
2021/05/15 02:26:49;;;;;;;9.53;7.60;;;;;;;6.70;74.71;98564.14;1732326;80;21462;-62
2021/05/15 02:29:21;;;;;;;12.00;8.08;;;;;;;6.71;74.73;98570.53;1733722;82;20937;-62
2021/05/15 02:31:58;;;;;;;11.50;7.92;;;;;;;6.72;74.83;98565.73;1737464;82;21147;-63
2021/05/15 02:34:30;;;;;;;14.45;8.20;;;;;;;6.78;75.03;98569.78;1736384;82;21584;-62
2021/05/15 02:37:02;;;;;;;12.33;8.03;;;;;;;6.85;75.16;98567.24;1733584;82;21384;-63
2021/05/15 02:39:51;;;;;;;10.15;7.75;;;;;;;6.93;75.26;98566.86;1674212;84;20970;-62
2021/05/15 02:42:16;;;;;;;14.87;8.03;;;;;;;7.01;75.26;98562.13;1720383;82;20956;-62
2021/05/15 02:44:45;;;;;;;8.53;7.62;;;;;;;7.08;75.21;98565.23;1737042;82;20996;-62
2021/05/15 02:47:16;;;;;;;9.78;7.08;;;;;;;7.13;75.30;98558.05;1733025;82;21451;-62
2021/05/15 02:49:48;;;;;;;10.68;7.30;;;;;;;7.22;75.32;98557.56;1732594;80;20945;-63
2021/05/15 02:52:16;;;;;;;9.48;8.10;;;;;;;7.25;75.30;98552.20;1732881;80;20902;-63
2021/05/15 02:54:45;;;;;;;10.90;6.95;;;;;;;7.30;75.30;98554.11;1731713;82;20956;-62
2021/05/15 02:57:14;;;;;;;9.18;7.50;;;;;;;7.38;75.43;98557.14;1732244;81;21715;-62
2021/05/15 02:59:42;;;;;;;10.15;7.50;;;;;;;7.50;75.54;98553.52;1666984;84;21556;-62
2021/05/15 03:02:13;;;;;;;11.28;7.78;;;;;;;7.62;75.61;98547.22;1716130;80;21390;-62
2021/05/15 03:04:45;;;;;;;9.20;7.25;;;;;;;7.74;75.55;98544.41;1723043;81;21046;-63
2021/05/15 03:07:15;;;;;;;12.18;7.33;;;;;;;7.81;75.59;98552.27;1744702;81;20952;-62
2021/05/15 03:09:45;;;;;;;11.70;7.10;;;;;;;7.92;75.59;98559.91;1746410;81;20965;-63
2021/05/15 03:12:26;;;;;;;9.48;7.37;;;;;;;8.00;75.56;98560.33;1744801;81;20912;-63
2021/05/15 03:14:52;;;;;;;12.55;8.28;;;;;;;8.17;75.84;98562.83;1680850;84;20925;-63
2021/05/15 03:17:19;;;;;;;7.55;6.47;;;;;;;8.57;76.07;98559.76;1685912;84;21439;-63
2021/05/15 03:19:52;;;;;;;7.30;6.17;;;;;;;8.91;75.71;98559.96;1685776;84;21968;-63
2021/05/15 03:22:21;;;;;;;9.65;7.30;;;;;;;9.07;75.56;98554.19;1680885;84;20970;-63
2021/05/15 03:24:48;;;;;;;14.05;6.87;;;;;;;9.34;75.70;98552.17;1681805;84;20948;-63
2021/05/15 03:27:15;;;;;;;12.63;7.55;;;;;;;9.71;75.74;98544.69;1686462;84;20903;-63
2021/05/15 03:29:43;;;;;;;11.22;6.60;;;;;;;10.03;75.35;98560.45;1687867;84;21061;-63
2021/05/15 03:32:10;;;;;;;;;;;;;;;10.08;74.95;98558.40;1703380;82;20984;-63
2021/05/15 03:34:37;;;;;;;8.45;6.55;;;;;;;10.06;74.94;98560.26;1743784;81;21225;-61
2021/05/15 03:37:04;;;;;;;9.90;6.47;;;;;;;10.01;74.87;98554.49;1750646;81;20955;-61
2021/05/15 03:39:32;;;;;;;9.48;6.75;;;;;;;10.00;74.96;98560.66;1744488;80;20943;-61
2021/05/15 03:42:00;;;;;;;7.70;6.08;;;;;;;10.07;75.06;98564.53;1744866;81;21443;-61
2021/05/15 03:44:27;;;;;;;9.45;6.78;;;;;;;10.09;74.97;98567.89;1687206;82;20946;-61
2021/05/15 03:46:54;;;;;;;8.10;6.97;;;;;;;10.16;74.98;98568.80;1693852;82;21648;-61
2021/05/15 03:49:21;;;;;;;8.85;5.58;;;;;;;10.24;74.95;98567.84;1692206;84;20937;-60
2021/05/15 03:51:48;;;;;;;11.73;6.78;;;;;;;10.30;74.89;98561.77;1685264;84;20959;-60
2021/05/15 03:54:16;;;;;;;10.15;5.78;;;;;;;10.44;75.01;98567.41;1681973;84;21531;-61
2021/05/15 03:56:43;;;;;;;10.78;5.50;;;;;;;10.58;74.88;98573.51;1686243;83;20964;-60
2021/05/15 03:59:10;;;;;;;14.53;7.17;;;;;;;10.66;74.83;98571.23;1689296;84;20973;-60
2021/05/15 04:01:37;;;;;;;8.37;6.40;;;;;;;10.77;74.89;98575.28;1690437;84;20945;-61
2021/05/15 04:04:04;;;;;;;6.30;5.25;;;;;;;10.83;74.70;98574.86;1696551;82;21521;-61
2021/05/15 04:06:31;;;;;;;8.15;5.83;;;;;;;10.84;74.59;98583.08;1696220;82;21516;-61
2021/05/15 04:08:58;;;;;;;13.68;5.42;;;;;;;10.81;74.48;98578.06;1693244;83;21534;-60
2021/05/15 04:11:33;;;;;;;15.33;6.47;;;;;;;10.69;74.32;98582.77;1699978;83;21098;-61
2021/05/15 04:13:58;;;;;;;8.38;7.08;;;;;;;10.67;74.67;98580.73;1696687;83;20967;-61
2021/05/15 04:18:49;;;;;;;7.22;5.85;;;;;;;10.63;74.51;98577.96;1695834;82;21096;-61
2021/05/15 04:21:16;;;;;;;10.48;6.55;;;;;;;10.62;74.47;98576.30;1695199;83;21468;-61
2021/05/15 04:23:43;;;;;;;8.65;5.97;;;;;;;10.55;74.61;98579.77;1695437;83;21008;-60
2021/05/15 04:26:13;;;;;;;12.07;6.93;;;;;;;10.51;74.43;98576.52;1699477;83;20890;-61
2021/05/15 04:28:40;;;;;;;8.83;5.70;;;;;;;10.43;74.42;98578.80;1696291;82;21615;-61
2021/05/15 04:31:07;;;;;;;14.18;6.70;;;;;;;10.40;74.66;98578.99;1695814;83;20953;-61
2021/05/15 04:33:33;;;;;;;10.08;7.10;;;;;;;10.46;74.74;98581.20;1695388;83;20937;-61
2021/05/15 04:36:00;;;;;;;10.88;8.00;;;;;;;10.44;74.59;98577.84;1696883;83;21750;-61
2021/05/15 04:38:27;;;;;;;10.93;7.20;;;;;;;10.40;74.62;98580.30;1693351;83;20897;-61
2021/05/15 04:40:54;;;;;;;10.28;7.78;;;;;;;10.35;74.52;98582.84;1697335;83;20926;-60
2021/05/15 04:43:21;;;;;;;14.83;7.58;;;;;;;10.17;74.55;98567.87;1695708;83;21491;-60
2021/05/15 04:45:47;;;;;;;19.47;7.73;;;;;;;10.24;74.54;98591.31;1689517;83;21929;-60
2021/05/15 04:48:14;;;;;;;23.90;7.85;;;;;;;10.17;74.59;98592.66;1695919;83;20983;-61
2021/05/15 04:50:41;;;;;;;13.07;7.83;;;;;;;10.18;74.86;98589.94;1692464;83;20977;-61
2021/05/15 04:53:07;;;;;;;12.65;7.33;;;;;;;10.22;74.67;98590.56;1695312;82;21036;-60
2021/05/15 04:55:34;;;;;;;14.25;7.30;;;;;;;10.20;74.80;98589.85;1696833;83;20959;-61
2021/05/15 04:58:01;;;;;;;10.07;6.13;;;;;;;10.28;74.91;98588.45;1707749;83;20929;-60
2021/05/15 05:00:28;;;;;;;29.45;7.37;;;;;;;10.33;74.84;98594.66;1698249;83;21014;-61
2021/05/15 05:02:55;;;;;;;14.98;8.73;;;;;;;10.34;74.81;98587.23;1695777;83;20956;-61
2021/05/15 05:05:22;;;;;;;9.20;7.05;;;;;;;10.42;74.89;98589.31;1685539;83;21574;-60
2021/05/15 05:07:51;;;;;;;;;;;;;;;10.50;74.92;98595.74;1705480;82;21075;-60
2021/05/15 05:10:18;;;;;;;10.38;7.85;;;;;;;10.59;74.75;98593.47;1718069;82;20551;-61
2021/05/15 05:12:45;;;;;;;8.98;7.50;;;;;;;10.71;74.92;98592.66;1713198;82;21998;-61
2021/05/15 05:15:12;;;;;;;9.87;7.13;;;;;;;10.87;74.99;98594.62;1717818;82;20979;-60
2021/05/15 05:17:39;;;;;;;7.70;6.00;;;;;;;10.98;74.67;98598.67;1719903;82;20914;-61
2021/05/15 05:20:08;;;;;;;11.40;8.03;;;;;;;11.00;74.54;98600.33;1714559;82;20960;-61
2021/05/15 05:22:34;;;;;;;8.60;6.45;;;;;;;10.97;74.33;98604.81;1719103;82;20938;-60
2021/05/15 05:25:01;;;;;;;7.43;6.03;;;;;;;11.00;74.57;98606.86;1716633;82;21376;-60
2021/05/15 05:27:28;;;;;;;9.73;5.87;;;;;;;11.04;74.49;98604.42;1712155;82;21438;-61
2021/05/15 05:29:55;;;;;;;8.05;7.10;;;;;;;11.08;74.62;98605.87;1716883;82;21565;-61
2021/05/15 05:32:21;;;;;;;6.53;5.70;;;;;;;11.14;74.41;98605.46;1717396;82;20960;-61
2021/05/15 05:34:48;;;;;;;9.15;7.42;;;;;;;11.12;74.34;98613.89;1719895;82;20956;-60
2021/05/15 05:37:15;;;;;;;11.25;7.47;;;;;;;11.09;74.41;98608.84;1695335;82;21716;-61
2021/05/15 05:39:42;;;;;;;10.58;7.17;;;;;;;11.04;74.31;98616.18;1712975;82;20904;-60
2021/05/15 05:42:08;;;;;;;11.10;6.83;;;;;;;11.02;74.37;98611.52;1717316;82;20937;-60
2021/05/15 05:44:35;;;;;;;8.30;7.43;;;;;;;11.02;74.46;98618.05;1702607;82;21694;-61
2021/05/15 05:47:02;;;;;;;7.62;6.80;;;;;;;10.97;74.39;98621.78;1738146;81;20920;-61
2021/05/15 05:49:29;;;;;;;5.87;4.95;;;;;;;10.98;74.43;98624.78;1716734;81;21007;-61
2021/05/15 05:51:56;;;;;;;6.45;5.42;;;;;;;10.95;74.39;98628.91;1742032;80;20899;-61
2021/05/15 05:54:23;;;;;;;7.17;6.10;;;;;;;10.85;74.36;98627.83;1749231;80;21466;-61
2021/05/15 05:56:49;;;;;;;13.03;6.25;;;;;;;10.84;74.47;98630.09;1744690;80;21027;-61
2021/05/15 05:59:16;;;;;;;6.97;6.00;;;;;;;10.87;74.54;98629.87;1744369;81;20908;-61
2021/05/15 06:01:43;;;;;;;7.58;6.10;;;;;;;10.85;74.33;98629.14;1744655;81;21122;-61
2021/05/15 06:04:10;;;;;;;8.08;6.45;;;;;;;10.82;74.43;98637.17;1742656;80;20943;-60
2021/05/15 06:06:37;;;;;;;6.37;5.78;;;;;;;10.85;74.45;98646.58;1725073;81;20886;-61
2021/05/15 06:09:05;;;;;;;8.75;7.17;;;;;;;10.82;74.29;98639.78;1741889;80;20969;-61
2021/05/15 06:11:32;;;;;;;11.00;7.75;;;;;;;10.82;74.54;98638.48;1724507;80;20944;-61
2021/05/15 06:13:59;;;;;;;9.00;6.05;;;;;;;10.92;74.64;98646.09;1741563;81;21029;-61
2021/05/15 06:16:26;;;;;;;5.87;5.35;;;;;;;11.00;74.53;98648.65;1745619;80;20954;-61
2021/05/15 06:18:53;;;;;;;8.43;7.40;;;;;;;11.02;74.35;98652.00;1746664;81;20916;-61
2021/05/15 06:21:21;;;;;;;10.33;7.50;;;;;;;11.01;74.36;98654.23;1746835;80;20945;-61
2021/05/15 06:23:49;;;;;;;13.65;7.03;;;;;;;11.04;74.53;98650.14;1744826;81;21916;-61
2021/05/15 06:26:16;;;;;;;7.97;7.25;;;;;;;11.08;74.51;98656.81;1721430;81;21753;-61
2021/05/15 06:28:43;;;;;;;11.68;8.33;;;;;;;11.15;74.56;98652.40;1742080;81;20880;-61
2021/05/15 06:31:09;;;;;;;7.23;6.23;;;;;;;11.17;74.34;98662.28;1743395;81;20995;-61
2021/05/15 06:33:39;;;;;;;8.20;7.25;;;;;;;11.18;74.38;98659.20;1679945;83;21578;-61
2021/05/15 06:36:07;;;;;;;12.98;7.75;;;;;;;11.19;74.38;98655.63;1694232;82;20960;-61
2021/05/15 06:38:35;;;;;;;9.03;7.12;;;;;;;11.22;74.27;98659.82;1690728;84;20955;-60
2021/05/15 06:41:02;;;;;;;10.25;7.87;;;;;;;11.22;74.34;98664.58;1696740;82;20944;-61
2021/05/15 06:43:29;;;;;;;11.83;7.30;;;;;;;11.25;74.24;98668.76;1707048;83;21462;-61
2021/05/15 06:45:56;;;;;;;9.93;8.08;;;;;;;11.28;74.29;98667.25;1697490;82;20961;-61
2021/05/15 06:48:23;;;;;;;9.10;8.18;;;;;;;11.27;74.26;98671.64;1687771;84;21523;-61
2021/05/15 06:50:50;;;;;;;9.70;7.72;;;;;;;11.26;74.15;98668.67;1707864;83;21001;-62
2021/05/15 06:53:17;;;;;;;8.53;6.40;;;;;;;11.32;74.37;98669.56;1695275;82;21007;-60
2021/05/15 06:55:44;;;;;;;9.45;7.65;;;;;;;11.39;74.32;98672.59;1692826;84;21039;-61
2021/05/15 06:58:13;;;;;;;8.48;6.70;;;;;;;11.42;74.19;98667.98;1692116;82;21954;-61
2021/05/15 07:00:41;;;;;;;10.28;8.03;;;;;;;11.37;74.17;98668.78;1685128;83;20977;-61
2021/05/15 07:03:08;;;;;;;7.75;6.10;;;;;;;11.46;74.35;98667.80;1693516;83;21135;-61
2021/05/15 07:05:35;;;;;;;7.17;6.47;;;;;;;11.54;74.11;98675.94;1689893;82;20929;-62
2021/05/15 07:08:02;;;;;;;8.03;6.50;;;;;;;11.49;73.89;98675.44;1695279;83;20950;-61
2021/05/15 07:10:29;;;;;;;6.05;5.55;;;;;;;11.48;74.13;98682.41;1685651;83;20997;-62
2021/05/15 07:12:56;;;;;;;8.43;6.65;;;;;;;11.52;74.03;98675.22;1699673;83;20933;-62
2021/05/15 07:15:23;;;;;;;6.90;5.78;;;;;;;11.56;74.15;98676.20;1697719;83;21029;-62
2021/05/15 07:17:50;;;;;;;8.05;6.45;;;;;;;11.60;74.07;98678.16;1736666;80;20921;-62
2021/05/15 07:20:17;;;;;;;6.80;6.10;;;;;;;11.59;73.89;98669.92;1734364;80;21000;-62
2021/05/15 07:22:45;;;;;;;8.93;7.55;;;;;;;11.48;73.89;98687.64;1733975;82;21023;-62
2021/05/15 07:25:12;;;;;;;8.05;5.97;;;;;;;11.48;73.95;98694.66;1736687;82;20936;-62
2021/05/15 07:27:39;;;;;;;9.30;7.75;;;;;;;11.37;73.91;98693.62;1732727;82;23886;-62
2021/05/15 07:30:08;;;;;;;10.15;6.58;;;;;;;11.33;74.12;98694.74;1730317;80;21494;-62
2021/05/15 07:32:35;;;;;;;9.50;7.28;;;;;;;11.32;74.12;98702.23;1733668;80;20956;-62
2021/05/15 07:35:02;;;;;;;9.45;7.67;;;;;;;11.28;74.16;98705.97;1713816;82;21818;-62
2021/05/15 07:37:31;;;;;;;9.18;6.85;;;;;;;11.25;74.18;98702.73;1733007;82;20948;-62
2021/05/15 07:39:58;;;;;;;10.82;8.63;;;;;;;11.23;74.34;98706.77;1715881;82;21201;-64
2021/05/15 07:42:27;;;;;;;10.72;8.45;;;;;;;11.24;74.29;98711.04;1706055;81;20980;-63
2021/05/15 07:44:53;;;;;;;8.13;7.33;;;;;;;11.27;74.33;98708.22;1734759;80;20976;-63
2021/05/15 07:47:20;;;;;;;10.80;9.00;;;;;;;11.32;74.50;98707.45;1733198;82;20975;-63
2021/05/15 07:49:46;;;;;;;7.73;6.93;;;;;;;11.38;74.43;98702.29;1733916;82;20946;-63
2021/05/15 07:52:13;;;;;;;10.68;9.43;;;;;;;11.37;74.31;98702.77;1728456;80;21089;-63
2021/05/15 07:54:40;;;;;;;9.60;8.60;;;;;;;11.41;74.51;98705.52;1728398;82;21442;-63
2021/05/15 07:57:06;;;;;;;9.57;8.13;;;;;;;11.49;74.49;98707.63;1730668;82;20985;-63
2021/05/15 07:59:33;;;;;;;10.83;9.10;;;;;;;11.49;74.32;98714.64;1737786;82;20893;-63
2021/05/15 08:02:00;;;;;;;9.30;8.38;;;;;;;11.43;74.32;98719.34;1734738;82;20947;-63
2021/05/15 08:04:26;;;;;;;8.70;7.83;;;;;;;11.43;74.54;98719.34;1728161;80;22284;-63
2021/05/15 08:06:53;;;;;;;9.00;7.47;;;;;;;11.42;74.33;98720.26;1731637;80;20913;-63
2021/05/15 08:09:19;;;;;;;6.73;6.03;;;;;;;11.38;74.36;98726.64;1730657;80;20922;-63
2021/05/15 08:11:46;;;;;;;8.28;6.70;;;;;;;11.38;74.42;98724.03;1733915;82;20965;-62
2021/05/15 08:14:13;;;;;;;8.05;6.87;;;;;;;11.32;74.25;98721.00;1735340;82;20896;-62
2021/05/15 08:16:41;;;;;;;6.17;5.53;;;;;;;11.32;74.51;98724.44;1730395;80;20920;-62
2021/05/15 08:19:08;;;;;;;7.08;4.67;;;;;;;11.30;74.32;98727.61;1733022;80;20991;-62
2021/05/15 08:21:35;;;;;;;6.77;5.50;;;;;;;11.31;74.50;98733.20;1727229;80;20920;-63
2021/05/15 08:24:01;;;;;;;6.33;5.73;;;;;;;11.40;74.65;98732.61;1733390;82;22116;-63
2021/05/15 08:26:28;;;;;;;6.92;4.30;;;;;;;11.47;74.59;98733.50;1732343;82;21597;-62
2021/05/15 08:28:56;;;;;;;4.80;4.12;;;;;;;11.51;74.62;98734.52;1733024;80;20995;-62
2021/05/15 08:31:23;;;;;;;5.35;4.58;;;;;;;11.45;74.59;98715.77;1732600;82;20958;-62
2021/05/15 08:33:50;;;;;;;4.10;3.70;;;;;;;11.46;74.26;98734.45;1731424;80;20928;-62
2021/05/15 08:36:18;;;;;;;4.78;3.75;;;;;;;11.27;74.07;98743.50;1729696;80;20937;-63
2021/05/15 08:38:45;;;;;;;4.08;3.67;;;;;;;11.03;74.13;98741.17;1731757;80;20904;-62
2021/05/15 08:41:13;;;;;;;5.05;3.25;;;;;;;10.91;74.41;98746.25;1736328;80;21566;-62
2021/05/15 08:43:42;;;;;;;3.35;2.72;;;;;;;10.89;74.61;98744.20;1685176;84;20949;-62
2021/05/15 08:46:14;;;;;;;4.28;3.50;;;;;;;10.94;74.82;98740.83;1699018;83;20942;-63
2021/05/15 08:48:43;;;;;;;2.52;2.33;;;;;;;11.08;75.13;98744.33;1701323;83;21010;-63
2021/05/15 08:51:11;;;;;;;4.03;2.85;;;;;;;11.30;75.26;98744.60;1682884;84;20953;-63
2021/05/15 08:53:40;;;;;;;3.27;2.65;;;;;;;11.47;74.98;98747.88;1692247;83;21792;-63
2021/05/15 08:56:09;;;;;;;3.27;2.70;;;;;;;11.62;74.92;98753.38;1695752;83;21576;-63
2021/05/15 08:58:39;;;;;;;2.45;1.80;;;;;;;11.79;74.89;98757.03;1690864;83;21015;-62
2021/05/15 09:01:11;;;;;;;1.75;1.65;;;;;;;11.79;74.89;98757.03;1681909;83;21076;-62
2021/05/15 09:03:39;;;;;;;3.17;2.50;;;;;;;11.83;74.57;98758.48;1700108;83;21725;-62
2021/05/15 09:06:07;;;;;;;2.10;1.87;;;;;;;11.87;74.75;98761.75;1698484;83;21311;-63
2021/05/15 09:08:37;;;;;;;2.37;2.17;;;;;;;11.81;74.51;98754.30;1695624;83;21528;-63
2021/05/15 09:11:07;;;;;;;153.27;121.00;;;;;;;11.79;74.66;98767.49;1697368;83;20980;-63
2021/05/15 09:13:36;;;;;;;7.55;6.78;;;;;;;11.81;74.73;98762.14;1693632;83;20992;-63
2021/05/15 09:16:06;;;;;;;5.55;2.95;;;;;;;11.71;74.58;98761.94;1692284;83;21047;-63
2021/05/15 09:18:41;;;;;;;2.90;2.10;;;;;;;11.70;74.58;98759.41;1692549;83;21399;-63
2021/05/15 09:21:16;;;;;;;1.80;1.70;;;;;;;11.67;74.64;98766.16;1694914;83;21023;-63
2021/05/15 09:23:48;;;;;;;2.42;2.00;;;;;;;11.59;74.50;98767.97;1740711;81;20984;-63
2021/05/15 09:26:24;;;;;;;1.87;1.77;;;;;;;11.56;74.64;98765.56;1691298;84;20988;-63
2021/05/15 09:28:57;;;;;;;1.67;1.57;;;;;;;11.63;74.90;98765.53;1693074;81;20992;-63
2021/05/15 09:31:42;;;;;;;1.98;1.52;;;;;;;11.71;75.05;98769.78;1690295;83;21001;-63
2021/05/15 09:34:12;;;;;;;1.32;1.22;;;;;;;11.76;75.09;98754.62;1689182;82;20982;-63
2021/05/15 09:36:51;;;;;;;1.80;1.70;;;;;;;11.96;75.04;98779.91;1692237;83;20934;-63
2021/05/15 09:39:25;;;;;;;1.32;1.22;;;;;;;12.11;75.11;98774.95;1697770;83;21008;-63
2021/05/15 09:41:57;;;;;;;2.47;2.08;;;;;;;12.14;74.88;98768.20;1687846;83;21551;-63
2021/05/15 09:44:40;;;;;;;2.12;1.57;;;;;;;12.29;74.94;98783.30;1691983;83;21134;-63
2021/05/15 09:47:04;;;;;;;2.45;1.57;;;;;;;12.38;74.88;98783.13;1675388;83;21028;-63
2021/05/15 09:49:34;;;;;;;1.40;1.30;;;;;;;12.54;75.12;98783.27;1692527;83;20941;-63
2021/05/15 09:52:08;;;;;;;2.35;1.50;;;;;;;12.75;74.96;98782.23;1692404;83;20966;-63
2021/05/15 09:54:43;;;;;;;2.22;1.80;;;;;;;12.96;74.98;98775.91;1692203;82;20979;-63
2021/05/15 09:57:16;;;;;;;1.60;1.40;;;;;;;13.12;74.67;98782.20;1694094;83;21004;-63
2021/05/15 09:59:49;;;;;;;1.60;1.50;;;;;;;13.07;74.36;98780.38;1692437;83;20989;-63
2021/05/15 10:02:20;;;;;;;1.20;1.10;;;;;;;13.04;74.36;98774.06;1691552;83;20968;-63
2021/05/15 10:04:53;;;;;;;4.20;1.40;;;;;;;12.92;74.00;98773.65;1693982;83;21042;-63
2021/05/15 10:07:26;;;;;;;1.70;1.50;;;;;;;12.80;74.37;98782.36;1695527;82;20944;-63
2021/05/15 10:10:01;;;;;;;2.10;1.47;;;;;;;12.79;74.40;98779.39;1690995;83;21022;-62
2021/05/15 10:12:31;;;;;;;1.30;1.12;;;;;;;12.80;74.37;98783.23;1688775;84;21596;-63
2021/05/15 10:15:00;;;;;;;1.35;1.25;;;;;;;12.80;74.19;98787.61;1685861;83;20937;-62
2021/05/15 10:17:32;;;;;;;2.27;1.45;;;;;;;12.67;73.96;98788.48;1687641;84;20989;-62
2021/05/15 10:20:10;;;;;;;1.95;1.40;;;;;;;12.50;74.03;98787.53;1674409;84;20953;-63
2021/05/15 10:22:44;;;;;;;1.82;1.50;;;;;;;12.49;74.12;98792.39;1684394;84;21776;-62
2021/05/15 10:25:17;;;;;;;1.92;1.42;;;;;;;12.29;73.76;98797.25;1683252;84;20965;-63
2021/05/15 10:27:45;;;;;;;1.50;1.30;;;;;;;12.24;74.26;98799.34;1679669;83;20996;-62
2021/05/15 10:30:20;;;;;;;1.60;1.37;;;;;;;12.22;74.13;98806.45;1679621;84;20972;-62
2021/05/15 10:33:02;;;;;;;0.85;0.80;;;;;;;12.22;74.55;98806.45;1699009;81;20957;-63
2021/05/15 10:35:41;;;;;;;1.30;0.90;;;;;;;12.35;74.38;98806.91;1684878;83;21021;-63
2021/05/15 10:38:14;;;;;;;1.12;1.00;;;;;;;12.52;74.21;98796.13;1670030;85;20997;-63
2021/05/15 10:40:46;;;;;;;1.72;0.90;;;;;;;12.73;74.63;98794.59;1683363;83;20979;-62
2021/05/15 10:43:17;;;;;;;0.78;0.60;;;;;;;13.14;74.42;98793.42;1678976;82;20985;-63
2021/05/15 10:45:49;;;;;;;1.12;0.70;;;;;;;13.61;74.32;98790.44;1695209;81;20935;-63
2021/05/15 10:48:25;;;;;;;0.95;0.50;;;;;;;13.81;73.59;98792.05;1704381;81;21640;-63
2021/05/15 10:51:02;;;;;;;1.07;0.88;;;;;;;13.93;73.67;98791.11;1703161;81;20905;-63
2021/05/15 10:53:33;;;;;;;1.43;1.10;;;;;;;14.06;73.82;98789.23;1701457;82;21539;-63
2021/05/15 10:56:13;;;;;;;2.72;1.35;;;;;;;14.10;73.76;98797.21;1680933;84;21134;-63
2021/05/15 10:58:51;;;;;;;0.80;0.68;;;;;;;14.13;73.67;98791.38;1686286;82;20913;-63
2021/05/15 11:01:22;;;;;;;0.70;0.60;;;;;;;14.19;73.67;98798.78;1684669;84;20979;-64
2021/05/15 11:03:50;;;;;;;1.98;0.80;;;;;;;14.18;73.37;98787.92;1677884;84;20913;-64
2021/05/15 11:06:23;;;;;;;1.10;1.00;;;;;;;13.99;73.12;98794.57;1686872;82;20918;-63
2021/05/15 11:09:07;;;;;;;1.17;1.07;;;;;;;13.73;73.07;98796.55;1686679;83;21139;-64
2021/05/15 11:11:41;;;;;;;1.65;1.20;;;;;;;13.52;73.31;98798.97;1683511;82;20997;-65
2021/05/15 11:14:35;;;;;;;1.15;1.05;;;;;;;13.47;73.57;98797.19;1685785;84;21047;-64
2021/05/15 11:17:17;;;;;;;0.80;0.80;;;;;;;13.62;73.68;98797.34;1683132;84;21060;-65
2021/05/15 11:19:58;;;;;;;3.62;1.32;;;;;;;13.78;73.49;98801.43;1684481;82;20926;-63
2021/05/15 11:22:51;;;;;;;1.52;1.42;;;;;;;14.01;73.53;98799.23;1682461;84;20957;-65
2021/05/15 11:25:29;;;;;;;3.52;1.47;;;;;;;14.32;73.57;98795.57;1689327;84;20941;-63
2021/05/15 11:28:01;;;;;;;3.15;1.65;;;;;;;14.77;73.65;98800.84;1686257;84;21034;-63
2021/05/15 11:30:36;;;;;;;1.72;1.47;;;;;;;15.21;73.27;98800.39;1686363;82;20945;-63
2021/05/15 11:33:12;;;;;;;1.40;1.22;;;;;;;15.67;73.09;98797.92;1685569;84;20965;-63
2021/05/15 11:35:45;;;;;;;2.02;1.50;;;;;;;15.91;72.39;98795.55;1705834;81;20949;-63
2021/05/15 11:38:21;;;;;;;2.85;1.90;;;;;;;16.15;72.45;98800.06;1682988;84;20941;-63
2021/05/15 11:40:52;;;;;;;2.08;1.50;;;;;;;16.41;72.17;98797.85;1690587;84;21026;-63
2021/05/15 11:43:30;;;;;;;1.92;1.47;;;;;;;16.78;72.17;98800.78;1683547;84;20929;-63
2021/05/15 11:45:59;;;;;;;2.58;2.05;;;;;;;16.93;71.07;98808.31;1683183;84;20962;-63